createdAt,value
2022-11-28T00:01:15.622Z,20.70
2022-11-28T00:04:06.683Z,19.67
2022-11-28T00:06:55.752Z,20.23
2022-11-28T00:09:44.332Z,19.63
2022-11-28T00:12:32.987Z,21.20
2022-11-28T00:15:21.452Z,18.13
2022-11-28T00:18:10.454Z,16.00
2022-11-28T00:21:02.032Z,14.70
2022-11-28T00:23:50.519Z,16.23
2022-11-28T00:26:40.958Z,16.27
2022-11-28T00:29:29.463Z,16.93
2022-11-28T00:32:17.931Z,17.30
2022-11-28T00:35:07.262Z,18.30
2022-11-28T00:37:57.117Z,16.50
2022-11-28T00:40:45.596Z,15.80
2022-11-28T00:43:34.089Z,16.63
2022-11-28T00:46:23.572Z,16.03
2022-11-28T00:49:12.181Z,16.07
2022-11-28T00:52:00.646Z,16.73
2022-11-28T00:54:50.470Z,15.80
2022-11-28T00:57:38.941Z,14.83
2022-11-28T01:00:27.398Z,14.00
2022-11-28T01:03:15.822Z,14.60
2022-11-28T01:06:04.446Z,12.80
2022-11-28T01:08:53.428Z,13.73
2022-11-28T01:11:44.676Z,13.60
2022-11-28T01:14:33.260Z,13.47
2022-11-28T01:17:21.733Z,14.43
2022-11-28T01:20:11.205Z,13.17
2022-11-28T01:22:59.761Z,12.97
2022-11-28T01:25:48.249Z,14.73
2022-11-28T01:28:38.119Z,13.20
2022-11-28T01:31:28.020Z,13.10
2022-11-28T01:34:18.044Z,15.30
2022-11-28T01:37:06.565Z,16.80
2022-11-28T01:39:54.998Z,14.80
2022-11-28T01:42:43.476Z,15.53
2022-11-28T01:45:33.960Z,15.83
2022-11-28T01:48:26.255Z,14.17
2022-11-28T01:51:14.983Z,14.37
2022-11-28T01:54:03.819Z,13.40
2022-11-28T01:56:56.479Z,14.73
2022-11-28T01:59:48.824Z,12.77
2022-11-28T02:02:41.598Z,13.60
2022-11-28T02:05:30.138Z,14.43
2022-11-28T02:08:18.742Z,14.20
2022-11-28T02:11:35.924Z,15.27
2022-11-28T02:14:37.723Z,14.43
2022-11-28T02:17:35.134Z,14.40
2022-11-28T02:21:05.311Z,14.07
2022-11-28T02:24:37.815Z,14.40
2022-11-28T02:27:57.125Z,15.03
2022-11-28T02:30:55.800Z,14.53
2022-11-28T02:33:47.780Z,14.77
2022-11-28T02:36:40.378Z,14.47
2022-11-28T02:39:32.359Z,15.73
2022-11-28T02:42:24.203Z,15.77
2022-11-28T02:45:16.272Z,15.73
2022-11-28T02:48:06.443Z,14.60
2022-11-28T02:51:02.537Z,13.73
2022-11-28T02:53:52.250Z,12.50
2022-11-28T02:56:40.737Z,14.47
2022-11-28T02:59:44.730Z,13.63
2022-11-28T03:02:34.305Z,13.70
2022-11-28T03:05:29.197Z,13.93
2022-11-28T03:08:41.258Z,14.13
2022-11-28T03:11:40.596Z,13.70
2022-11-28T03:14:37.940Z,13.27
2022-11-28T03:17:34.179Z,13.47
2022-11-28T03:20:25.346Z,13.67
2022-11-28T03:23:16.223Z,14.03
2022-11-28T03:26:09.141Z,14.93
2022-11-28T03:29:02.236Z,13.73
2022-11-28T03:31:53.369Z,13.03
2022-11-28T03:34:44.682Z,12.23
2022-11-28T03:37:35.579Z,14.70
2022-11-28T03:40:26.978Z,14.60
2022-11-28T03:43:19.001Z,13.83
2022-11-28T03:46:10.303Z,14.27
2022-11-28T03:49:00.630Z,14.60
2022-11-28T03:51:51.760Z,14.30
2022-11-28T03:54:43.234Z,13.63
2022-11-28T03:57:35.441Z,13.20
2022-11-28T04:00:25.676Z,13.93
2022-11-28T04:03:25.271Z,13.17
2022-11-28T04:06:18.833Z,14.27
2022-11-28T04:09:14.259Z,13.30
2022-11-28T04:12:09.291Z,11.53
2022-11-28T04:15:08.020Z,11.63
2022-11-28T04:18:01.168Z,12.40
2022-11-28T04:20:53.266Z,10.40
2022-11-28T04:23:43.906Z,11.87
2022-11-28T04:26:34.959Z,11.47
2022-11-28T04:29:25.046Z,11.43
2022-11-28T04:32:15.122Z,12.27
2022-11-28T04:35:07.240Z,11.60
2022-11-28T04:37:56.489Z,11.40
2022-11-28T04:40:49.455Z,11.87
2022-11-28T04:43:41.743Z,11.03
2022-11-28T04:46:34.105Z,12.60
2022-11-28T04:49:22.914Z,12.30
2022-11-28T04:52:16.181Z,12.67
2022-11-28T04:55:09.545Z,11.60
2022-11-28T04:58:00.349Z,12.00
2022-11-28T05:00:51.040Z,11.00
2022-11-28T05:03:42.795Z,12.80
2022-11-28T05:06:33.205Z,12.43
2022-11-28T05:09:23.088Z,12.43
2022-11-28T05:12:11.532Z,12.57
2022-11-28T05:14:59.991Z,12.57
2022-11-28T05:17:48.471Z,13.40
2022-11-28T05:20:38.720Z,13.73
2022-11-28T05:23:27.151Z,12.00
2022-11-28T05:26:18.877Z,11.80
2022-11-28T05:29:07.309Z,12.00
2022-11-28T05:31:55.762Z,12.03
2022-11-28T05:34:44.540Z,12.67
2022-11-28T05:37:33.351Z,11.63
2022-11-28T05:40:21.815Z,11.60
2022-11-28T05:43:11.618Z,12.90
2022-11-28T05:46:00.201Z,12.43
2022-11-28T05:48:48.960Z,13.40
2022-11-28T05:51:37.445Z,12.93
2022-11-28T05:54:26.481Z,12.47
2022-11-28T05:57:15.026Z,14.03
2022-11-28T06:00:05.749Z,13.13
2022-11-28T06:02:59.849Z,13.20
2022-11-28T06:05:49.832Z,14.83
2022-11-28T06:08:38.329Z,12.73
2022-11-28T06:11:29.046Z,14.03
2022-11-28T06:14:17.518Z,13.30
2022-11-28T06:17:07.419Z,13.20
2022-11-28T06:19:55.856Z,15.07
2022-11-28T06:22:44.323Z,12.97
2022-11-28T06:25:32.823Z,14.47
2022-11-28T06:28:21.300Z,14.53
2022-11-28T06:31:11.863Z,14.43
2022-11-28T06:34:01.647Z,14.50
2022-11-28T06:36:50.132Z,14.60
2022-11-28T06:39:38.554Z,15.97
2022-11-28T06:42:26.995Z,18.50
2022-11-28T06:45:15.498Z,18.53
2022-11-28T06:48:04.222Z,16.70
2022-11-28T06:50:54.274Z,14.27
2022-11-28T06:53:42.993Z,14.33
2022-11-28T06:56:32.121Z,15.03
2022-11-28T06:59:20.567Z,15.90
2022-11-28T07:02:09.041Z,21.83
2022-11-28T07:04:57.536Z,16.53
2022-11-28T07:07:54.191Z,17.77
2022-11-28T07:10:43.018Z,16.20
2022-11-28T07:13:31.468Z,16.50
2022-11-28T07:16:22.193Z,13.80
2022-11-28T07:19:12.312Z,15.27
2022-11-28T07:22:00.937Z,15.33
2022-11-28T07:24:50.835Z,12.90
2022-11-28T07:27:39.321Z,12.57
2022-11-28T07:30:27.878Z,18.97
2022-11-28T07:33:16.431Z,23.53
2022-11-28T07:36:06.636Z,20.00
2022-11-28T07:38:56.565Z,15.93
2022-11-28T07:41:46.437Z,14.23
2022-11-28T07:44:34.874Z,13.97
2022-11-28T07:47:23.324Z,15.30
2022-11-28T07:50:11.983Z,14.67
2022-11-28T07:53:05.595Z,15.60
2022-11-28T07:55:55.548Z,16.70
2022-11-28T07:58:46.875Z,15.60
2022-11-28T08:01:36.824Z,17.50
2022-11-28T08:04:25.396Z,16.83
2022-11-28T08:07:14.253Z,17.43
2022-11-28T08:10:02.796Z,19.37
2022-11-28T08:12:51.278Z,17.43
2022-11-28T08:15:41.724Z,20.53
2022-11-28T08:18:30.185Z,19.20
2022-11-28T08:21:20.681Z,16.10
2022-11-28T08:24:09.659Z,20.37
2022-11-28T08:26:58.134Z,15.90
2022-11-28T08:29:50.472Z,17.23
2022-11-28T08:32:42.973Z,17.53
2022-11-28T08:35:31.421Z,16.80
2022-11-28T08:38:20.165Z,16.50
2022-11-28T08:41:11.209Z,17.27
2022-11-28T08:43:59.686Z,16.70
2022-11-28T08:46:48.202Z,16.83
2022-11-28T08:49:39.356Z,18.87
2022-11-28T08:52:27.843Z,16.90
2022-11-28T08:55:16.470Z,17.00
2022-11-28T08:58:05.060Z,17.30
2022-11-28T09:00:53.645Z,17.10
2022-11-28T09:03:42.208Z,14.93
2022-11-28T09:06:32.214Z,17.60
2022-11-28T09:09:20.827Z,16.03
2022-11-28T09:12:09.292Z,14.87
2022-11-28T09:14:57.829Z,15.93
2022-11-28T09:17:46.393Z,15.40
2022-11-28T09:20:35.069Z,16.13
2022-11-28T09:23:24.987Z,15.80
2022-11-28T09:26:15.370Z,15.20
2022-11-28T09:29:03.829Z,16.10
2022-11-28T09:31:52.298Z,15.47
2022-11-28T09:34:40.982Z,17.67
2022-11-28T09:37:29.610Z,16.30
2022-11-28T09:40:23.453Z,15.53
2022-11-28T09:43:15.494Z,15.13
2022-11-28T09:46:07.201Z,16.20
2022-11-28T09:48:58.523Z,15.03
2022-11-28T09:51:52.191Z,14.93
2022-11-28T09:54:45.181Z,15.67
2022-11-28T09:57:37.257Z,16.13
2022-11-28T10:00:34.315Z,16.77
2022-11-28T10:03:36.764Z,16.43
2022-11-28T10:06:29.057Z,17.63
2022-11-28T10:09:27.391Z,17.07
2022-11-28T10:12:27.041Z,16.10
2022-11-28T10:15:29.571Z,16.20
2022-11-28T10:18:29.394Z,16.67
2022-11-28T10:21:24.461Z,17.00
2022-11-28T10:24:15.104Z,17.37
2022-11-28T10:27:05.917Z,17.10
2022-11-28T10:29:58.928Z,16.77
2022-11-28T10:32:56.508Z,16.00
2022-11-28T10:35:48.852Z,14.93
2022-11-28T10:38:37.637Z,17.20
2022-11-28T10:41:29.740Z,16.40
2022-11-28T10:44:23.510Z,16.57
2022-11-28T10:47:17.800Z,15.03
2022-11-28T10:50:13.860Z,13.20
2022-11-28T10:53:07.525Z,13.80
2022-11-28T10:56:11.114Z,13.73
2022-11-28T10:59:05.603Z,14.07
2022-11-28T11:01:54.463Z,13.00
2022-11-28T11:04:43.235Z,13.80
2022-11-28T11:07:34.926Z,16.63
2022-11-28T11:10:29.006Z,17.07
2022-11-28T11:13:19.685Z,18.00
2022-11-28T11:16:12.180Z,15.90
2022-11-28T11:19:01.021Z,16.40
2022-11-28T11:21:59.530Z,15.77
2022-11-28T11:25:05.644Z,14.87
2022-11-28T11:27:56.472Z,12.77
2022-11-28T11:30:45.970Z,12.50
2022-11-28T11:33:36.380Z,14.40
2022-11-28T11:36:27.844Z,12.87
2022-11-28T11:39:25.447Z,12.00
2022-11-28T11:42:21.675Z,13.10
2022-11-28T11:45:27.697Z,12.57
2022-11-28T11:48:17.074Z,12.57
2022-11-28T11:51:06.169Z,11.80
2022-11-28T11:54:05.007Z,11.67
2022-11-28T11:57:05.752Z,11.70
2022-11-28T12:00:06.895Z,11.50
2022-11-28T12:02:57.985Z,10.70
2022-11-28T12:09:04.876Z,11.90
2022-11-28T12:11:57.721Z,11.83
2022-11-28T12:14:48.526Z,13.90
2022-11-28T12:17:50.053Z,13.07
2022-11-28T12:20:49.444Z,11.60
2022-11-28T12:23:49.259Z,11.17
2022-11-28T12:26:44.866Z,10.93
2022-11-28T12:29:43.373Z,12.00
2022-11-28T12:32:41.635Z,11.67
2022-11-28T12:35:36.989Z,11.87
2022-11-28T12:38:32.626Z,12.10
2022-11-28T12:41:33.417Z,12.03
2022-11-28T12:44:30.093Z,14.00
2022-11-28T12:47:25.186Z,13.67
2022-11-28T12:50:23.759Z,14.57
2022-11-28T12:53:28.353Z,14.70
2022-11-28T12:56:31.449Z,13.30
2022-11-28T12:59:27.007Z,14.37
2022-11-28T13:02:33.333Z,15.47
2022-11-28T13:05:46.338Z,14.47
2022-11-28T13:08:48.935Z,13.00
2022-11-28T13:11:47.001Z,13.90
2022-11-28T13:14:42.053Z,13.63
2022-11-28T13:17:39.622Z,13.50
2022-11-28T13:20:31.630Z,13.70
2022-11-28T13:23:24.981Z,13.70
2022-11-28T13:26:18.387Z,13.17
2022-11-28T13:29:13.741Z,12.77
2022-11-28T13:32:08.053Z,15.13
2022-11-28T13:34:57.096Z,15.53
2022-11-28T13:41:04.935Z,18.47
2022-11-28T13:44:01.317Z,15.73
2022-11-28T13:46:51.577Z,16.13
2022-11-28T13:49:40.284Z,14.47
2022-11-28T13:52:43.435Z,14.57
2022-11-28T13:55:40.448Z,15.10
2022-11-28T13:58:35.089Z,15.80
2022-11-28T14:01:24.564Z,14.97
2022-11-28T14:04:14.591Z,14.50
2022-11-28T14:07:05.438Z,15.10
2022-11-28T14:10:04.522Z,15.20
2022-11-28T14:13:05.682Z,14.17
2022-11-28T14:16:04.719Z,14.47
2022-11-28T14:19:14.453Z,14.33
2022-11-28T14:22:13.768Z,14.13
2022-11-28T14:25:06.789Z,14.23
2022-11-28T14:27:57.191Z,12.57
2022-11-28T14:30:46.786Z,12.27
2022-11-28T14:33:39.178Z,12.90
2022-11-28T14:36:29.895Z,10.60
2022-11-28T14:39:35.099Z,10.17
2022-11-28T14:43:00.204Z,11.60
2022-11-28T14:45:47.028Z,11.27
2022-11-28T14:48:39.851Z,8.80
2022-11-28T14:52:22.969Z,9.97
2022-11-28T14:55:19.782Z,10.80
2022-11-28T14:58:13.811Z,14.60
2022-11-28T15:01:05.030Z,10.63
2022-11-28T15:03:59.726Z,10.90
2022-11-28T15:06:50.282Z,9.40
2022-11-28T15:09:42.712Z,8.90
2022-11-28T15:12:35.217Z,9.20
2022-11-28T15:15:24.327Z,9.03
2022-11-28T15:18:13.309Z,9.00
2022-11-28T15:21:05.660Z,8.77
2022-11-28T15:23:55.568Z,8.70
2022-11-28T15:26:44.853Z,8.97
2022-11-28T15:29:33.414Z,8.50
2022-11-28T15:32:22.192Z,8.00
2022-11-28T15:35:15.156Z,8.77
2022-11-28T15:38:05.163Z,9.10
2022-11-28T15:40:54.775Z,8.60
2022-11-28T15:43:45.341Z,8.93
2022-11-28T15:46:35.298Z,8.97
2022-11-28T15:49:30.402Z,9.47
2022-11-28T15:52:19.023Z,10.40
2022-11-28T15:55:17.821Z,13.23
2022-11-28T15:58:13.863Z,15.60
2022-11-28T16:01:05.131Z,12.67
2022-11-28T16:03:55.972Z,14.90
2022-11-28T16:06:46.383Z,15.50
2022-11-28T16:09:36.373Z,17.70
2022-11-28T16:12:26.684Z,14.30
2022-11-28T16:15:18.555Z,14.43
2022-11-28T16:18:07.640Z,13.50
2022-11-28T16:20:56.681Z,13.30
2022-11-28T16:23:45.139Z,14.43
2022-11-28T16:26:35.629Z,15.57
2022-11-28T16:29:31.791Z,14.70
2022-11-28T16:32:26.362Z,14.40
2022-11-28T16:35:26.476Z,14.17
2022-11-28T16:38:16.352Z,14.30
2022-11-28T16:41:04.832Z,15.10
2022-11-28T16:43:55.678Z,15.30
2022-11-28T16:46:52.873Z,15.80
2022-11-28T16:49:44.097Z,17.30
2022-11-28T16:52:45.552Z,20.40
2022-11-28T16:55:46.038Z,18.90
2022-11-28T16:58:34.478Z,17.10
2022-11-28T17:01:23.078Z,15.77
2022-11-28T17:04:21.824Z,18.07
2022-11-28T17:07:11.784Z,17.50
2022-11-28T17:10:00.355Z,17.47
2022-11-28T17:12:49.224Z,18.47
2022-11-28T17:15:37.694Z,14.67
2022-11-28T17:18:26.836Z,16.77
2022-11-28T17:21:17.742Z,17.10
2022-11-28T17:24:07.401Z,16.87
2022-11-28T17:26:56.153Z,13.87
2022-11-28T17:29:44.877Z,21.20
2022-11-28T17:32:33.518Z,19.07
2022-11-28T17:35:24.407Z,15.40
2022-11-28T17:38:14.317Z,15.97
2022-11-28T17:41:02.949Z,26.73
2022-11-28T17:43:51.585Z,19.20
2022-11-28T17:46:40.129Z,17.83
2022-11-28T17:49:28.809Z,16.70
2022-11-28T17:52:17.350Z,18.53
2022-11-28T17:55:07.830Z,17.67
2022-11-28T17:57:56.499Z,17.73
2022-11-28T18:00:45.521Z,16.27
2022-11-28T18:03:34.044Z,19.83
2022-11-28T18:06:23.965Z,22.43
2022-11-28T18:09:13.062Z,24.20
2022-11-28T18:12:02.915Z,26.17
2022-11-28T18:14:51.514Z,24.50
2022-11-28T18:17:40.026Z,22.37
2022-11-28T18:20:28.762Z,21.43
2022-11-28T18:23:17.316Z,22.37
2022-11-28T18:26:07.992Z,20.87
2022-11-28T18:28:57.905Z,22.40
2022-11-28T18:31:46.516Z,25.43
2022-11-28T18:34:35.110Z,26.90
2022-11-28T18:37:23.581Z,26.30
2022-11-28T18:40:13.139Z,22.27
2022-11-28T18:43:02.737Z,22.40
2022-11-28T18:45:52.756Z,24.87
2022-11-28T18:48:43.002Z,25.40
2022-11-28T18:51:35.613Z,25.23
2022-11-28T18:54:25.626Z,22.73
2022-11-28T18:57:14.406Z,21.53
2022-11-28T19:00:03.576Z,21.73
2022-11-28T19:02:53.390Z,24.80
2022-11-28T19:05:42.691Z,21.83
2022-11-28T19:08:31.228Z,23.10
2022-11-28T19:11:19.828Z,21.20
2022-11-28T19:14:09.246Z,21.87
2022-11-28T19:16:57.840Z,23.20
2022-11-28T19:19:48.057Z,24.17
2022-11-28T19:22:36.679Z,23.17
2022-11-28T19:25:26.058Z,26.50
2022-11-28T19:28:14.983Z,27.10
2022-11-28T19:31:06.831Z,26.27
2022-11-28T19:34:00.891Z,24.00
2022-11-28T19:36:52.014Z,25.23
2022-11-28T19:39:40.605Z,22.20
2022-11-28T19:42:29.060Z,23.77
2022-11-28T19:45:17.851Z,25.10
2022-11-28T19:48:06.759Z,23.83
2022-11-28T19:50:55.247Z,25.17
2022-11-28T19:53:45.630Z,27.17
2022-11-28T19:56:34.202Z,27.23
2022-11-28T19:59:22.782Z,28.00
2022-11-28T20:02:12.194Z,29.10
2022-11-28T20:05:00.791Z,65.03
2022-11-28T20:07:52.087Z,38.03
2022-11-28T20:10:44.621Z,29.57
2022-11-28T20:13:33.679Z,29.40
2022-11-28T20:16:22.258Z,30.50
2022-11-28T20:19:11.512Z,30.80
2022-11-28T20:22:01.052Z,27.07
2022-11-28T20:24:49.597Z,27.17
2022-11-28T20:27:39.374Z,32.30
2022-11-28T20:30:28.803Z,34.10
2022-11-28T20:33:17.376Z,40.10
2022-11-28T20:36:07.098Z,38.93
2022-11-28T20:38:56.481Z,31.97
2022-11-28T20:41:44.938Z,31.90
2022-11-28T20:44:34.845Z,33.87
2022-11-28T20:47:23.494Z,38.77
2022-11-28T20:50:12.068Z,33.87
2022-11-28T20:53:00.619Z,33.60
2022-11-28T20:55:49.144Z,40.13
2022-11-28T20:58:37.659Z,33.63
2022-11-28T21:01:29.515Z,31.97
2022-11-28T21:04:18.608Z,30.67
2022-11-28T21:07:07.027Z,28.20
2022-11-28T21:09:59.710Z,25.23
2022-11-28T21:12:48.341Z,28.90
2022-11-28T21:15:40.163Z,31.23
2022-11-28T21:18:30.093Z,30.67
2022-11-28T21:21:20.523Z,29.60
2022-11-28T21:24:12.233Z,29.07
2022-11-28T21:27:00.751Z,29.17
2022-11-28T21:29:51.986Z,27.73
2022-11-28T21:32:40.437Z,29.20
2022-11-28T21:35:30.292Z,25.73
2022-11-28T21:38:18.716Z,31.77
2022-11-28T21:41:07.553Z,27.50
2022-11-28T21:43:56.348Z,31.07
2022-11-28T21:46:44.857Z,30.20
2022-11-28T21:49:33.269Z,29.43
2022-11-28T21:52:24.159Z,27.70
2022-11-28T21:55:12.634Z,27.07
2022-11-28T21:58:01.105Z,27.50
2022-11-28T22:00:56.254Z,25.20
2022-11-28T22:03:44.751Z,25.20
2022-11-28T22:06:33.897Z,25.50
2022-11-28T22:12:29.428Z,25.60
2022-11-28T22:15:18.233Z,24.83
2022-11-28T22:18:06.821Z,25.70
2022-11-28T22:21:06.596Z,24.10
2022-11-28T22:24:01.620Z,24.27
2022-11-28T22:26:51.451Z,26.67
2022-11-28T22:29:39.925Z,25.83
2022-11-28T22:32:28.412Z,23.20
2022-11-28T22:35:17.053Z,26.53
2022-11-28T22:38:05.492Z,28.07
2022-11-28T22:40:53.922Z,27.30
2022-11-28T22:43:45.319Z,26.33
2022-11-28T22:46:34.079Z,26.03
2022-11-28T22:49:22.697Z,24.80
2022-11-28T22:52:11.221Z,27.23
2022-11-28T22:54:59.734Z,26.53
2022-11-28T22:57:48.472Z,24.40
2022-11-28T23:00:38.398Z,23.90
2022-11-28T23:03:27.018Z,22.67
2022-11-28T23:06:17.395Z,23.27
2022-11-28T23:09:08.364Z,23.00
2022-11-28T23:11:56.876Z,23.17
2022-11-28T23:14:45.485Z,20.03
2022-11-28T23:17:35.590Z,19.80
2022-11-28T23:20:24.609Z,18.57
2022-11-28T23:23:13.077Z,20.73
2022-11-28T23:26:05.311Z,21.97
2022-11-28T23:28:54.490Z,20.47
2022-11-28T23:31:43.452Z,19.60
2022-11-28T23:34:33.322Z,17.70
2022-11-28T23:37:24.677Z,17.90
2022-11-28T23:40:13.568Z,18.10
2022-11-28T23:43:01.971Z,18.20
2022-11-28T23:45:50.544Z,17.37
2022-11-28T23:48:39.528Z,18.60
2022-11-28T23:51:29.396Z,17.40
2022-11-28T23:54:18.542Z,15.87
2022-11-28T23:57:06.967Z,15.43
2022-11-28T23:59:55.440Z,17.43
